• Join FlightAware (Why Join?)
  • Login
  • US Flag 
04:44PM EDT


 

Airport Tracker/Info


-or-


 

Live Flight TrackerFlight Track Log ✈ SKW6534 ✈ 24-Apr-2013 ✈ KDEN - KIDA

Flight Track Log - Related Links

Times and Time Zones

All times are in EDT time to prevent confusion due to time zone crossing. See the SKW6534 flight status page for this flight to view local times or setup timezone preferences in your user account.

Time Position Orientation Groundspeed Altitude Reporting Facility
EDT Latitude Longitude Course Direction KTS MPH feet Rate Location/Type
01:22PM 39.8500 -104.7500 346° North 167 192 6,800  Level Denver TRACON
01:23PM 39.8667 -104.8167 288° West 231 266 8,600 1,980 Climbing Denver TRACON
01:24PM 39.9167 -104.9000 308° West 286 329 10,600 2,280 Climbing Denver TRACON
01:25PM 39.9381 -104.9242 319° Northwest 292 336 11,800 3,060 Climbing Denver Center
01:26PM 40.2888 -104.8083 347° North  Level FlightAware Approximate
01:26PM 40.0197 -104.9469 348° North 311 358 15,000  Level Denver Center
01:27PM 40.3987 -104.8440 346° North  Level FlightAware Approximate
01:27PM 40.1050 -104.9356 North 308 354 17,200  Level Denver Center
01:28PM 40.5084 -104.8806 346° North  Level FlightAware Approximate
01:28PM 40.1822 -104.9278 North 326 375 18,600  Level Denver Center
01:29PM 40.2989 -104.9147 North 341 392 20,800 1,980 Climbing Denver Center
01:30PM 40.4056 -104.8992 North 365 420 22,700 1,560 Climbing Denver Center
01:31PM 40.5064 -104.8897 North 349 402 24,100 1,140 Climbing Denver Center
01:32PM 40.5911 -104.8789 North 361 415 25,100 1,080 Climbing Denver Center
01:33PM 40.7136 -104.8628 North 386 444 26,400 1,140 Climbing Denver Center
01:34PM 40.8144 -104.8675 358° North 365 420 27,500 960 Climbing Denver Center
01:35PM 40.9106 -104.9133 340° North 365 420 28,500 780 Climbing Denver Center
01:36PM 41.0119 -104.9594 341° North 361 415 29,200 540 Climbing Denver Center
01:37PM 41.1042 -105.0119 337° Northwest 373 429 29,800 540 Climbing Denver Center
01:38PM 41.1775 -105.1531 305° West 369 425 30,500 660 Climbing Denver Center
01:39PM 41.2294 -105.2906 297° West 373 429 31,200 660 Climbing Denver Center
01:40PM 41.2744 -105.4081 297° West 371 427 31,900 360 Climbing Denver Center
01:41PM 41.3278 -105.5489 297° West 379 436 32,000  Climbing Denver Center
01:42PM 41.3742 -105.6747 296° West 391 450 32,000  Level Denver Center
01:44PM 41.4214 -105.8003 297° West 394 453 32,000  Level Denver Center
01:45PM 41.4764 -105.9489 296° West 398 458 32,000  Level Denver Center
01:46PM 41.5239 -106.0750 297° West 399 459 32,000  Level Denver Center
01:47PM 41.5867 -106.2467 296° West 403 464 32,000  Level Denver Center
01:48PM 41.6433 -106.3975 297° West 407 468 32,000  Level Denver Center
01:49PM 41.6875 -106.5214 296° West 406 467 32,000  Level Denver Center
01:50PM 41.7431 -106.6728 296° West 405 466 32,000  Level Denver Center
01:51PM 41.7892 -106.8011 296° West 403 464 32,000  Level Denver Center
01:52PM 41.8431 -106.9503 296° West 400 460 32,000  Level Denver Center
01:53PM 41.8881 -107.0775 295° West 396 456 32,000  Level Denver Center
01:54PM 41.9411 -107.2256 296° West 395 455 32,000  Level Denver Center
01:56PM 42.0386 -107.5022 295° West 396 456 32,000  Level Denver Center
01:57PM 42.0828 -107.6317 295° West 399 459 32,000  Level Denver Center
01:58PM 42.1042 -107.6964 294° West 401 461 32,000  Level Salt Lake Center
01:59PM 42.1508 -107.8253 296° West 400 460 32,000  Level Salt Lake Center
02:00PM 42.1969 -107.9572 295° West 405 466 32,000  Level Salt Lake Center
02:01PM 42.2494 -108.1086 295° West 402 463 32,000  Level Salt Lake Center
02:02PM 42.2917 -108.2381 294° West 397 457 32,000  Level Salt Lake Center
02:03PM 42.3439 -108.3903 295° West 401 461 32,000  Level Salt Lake Center
02:04PM 42.3892 -108.5200 295° West 402 463 32,000  Level Salt Lake Center
02:05PM 42.4386 -108.6728 294° West 399 459 32,000  Level Salt Lake Center
02:06PM 42.4828 -108.8031 295° West 399 459 32,000  Level Salt Lake Center
02:07PM 42.5342 -108.9575 294° West 403 464 32,000  Level Salt Lake Center
02:08PM 42.5781 -109.0911 294° West 405 466 32,000  Level Salt Lake Center
02:09PM 42.6297 -109.2469 294° West 405 466 32,000  Level Salt Lake Center
02:10PM 42.6725 -109.3775 294° West 400 460 32,000  Level Salt Lake Center
02:11PM 42.7225 -109.5308 294° West 397 457 32,000  Level Salt Lake Center
02:12PM 42.7650 -109.6617 294° West 397 457 32,000  Level Salt Lake Center
02:13PM 42.8139 -109.8133 294° West 394 453 32,000  Level Salt Lake Center
02:14PM 42.8575 -109.9492 294° West 397 457 32,000  Level Salt Lake Center
02:15PM 42.9064 -110.1019 294° West 394 453 32,000  Level Salt Lake Center
02:16PM 42.9467 -110.2283 294° West 393 452 32,000 -60 Level Salt Lake Center
02:17PM 42.9964 -110.3881 293° West 397 457 31,900 -1,200 Descending Salt Lake Center
02:18PM 43.0389 -110.5203 294° West 396 456 29,600 -2,280 Descending Salt Lake Center
02:19PM 43.0828 -110.6561 294° West 406 467 27,300 -2,520 Descending Salt Lake Center
02:20PM 43.1322 -110.8169 293° West 410 472 24,500 -2,520 Descending Salt Lake Center
02:21PM 43.1758 -110.9558 293° West 413 475 22,100 -2,400 Descending Salt Lake Center
02:22PM 43.2186 -111.0958 293° West 390 449 19,600 -2,220 Descending Salt Lake Center
02:23PM 43.2594 -111.2278 293° West 376 433 17,600 -2,280 Descending Salt Lake Center
02:24PM 43.3061 -111.3794 293° West 376 433 15,000 -2,400 Descending Salt Lake Center
02:25PM 43.3425 -111.4992 293° West 368 423 12,800 -1,920 Descending Salt Lake Center
02:26PM 43.3808 -111.6258 293° West 348 400 11,100 -1,320 Descending Salt Lake Center
02:27PM 43.4158 -111.7081 300° West 305 351 10,100 -900 Descending Salt Lake Center
02:29PM 43.4528 -111.7750 307° West 259 298 9,300 -780 Descending Salt Lake Center
02:30PM 43.4925 -111.8572 304° West 240 276 8,600 -720 Descending Salt Lake Center